»·PEaware :: UAL933 KRNO-KPSP

UAL933 :: KRNO-KPSP

FLIGHT INFORMATION

Flight Status: Arrived
Operator:
United Airlines
More flights by this operator :: More flights under this callsign
Pilot: Anonymous 15267 (15267)
Aircraft: BOEING 737-200
(B732)
More flights by this aircraft type
Origin: KRNO Reno/Tahoe Intl
United States
Destination: KPSP Palm Springs Intl
United States
More flights between these airports :: More routes between these airports
Route: +WAGGE6 WAGGE OAL J92 BTY J86 FUZZY GFS CLOWD1
File this flight plan on PilotEdge
Remarks: RMK / SIMBRIEF
Altitude:
(Current/Filed)
29,000ft
Speed:
(Current/Filed)
438kts
Departed: 03-May-19 01:45 PM
Arrived: 03-May-19 03:09 PM
Distance/Time
Traveled:
375nm/1:24
Distance/Time
To Go:
Arrived

Flight Plot

Page will automatically refresh every two minutes.


Map Options




Map Legend


Flown Route
Filed Route
Departure Airport
Arrival Airport
Navaid (VOR, NDB)
Fix

Horizontal Profiles

Position Reports

Time Latitude Longitude Heading Altitude Ground
Speed
03-May-19 13:07 39.504525 -119.772378 320 4424ft 0kts
03-May-19 13:08 39.504525 -119.772378 320 4424ft 0kts
03-May-19 13:09 39.504525 -119.772378 320 4424ft 0kts
03-May-19 13:10 39.504525 -119.772378 320 4424ft 0kts
03-May-19 13:11 39.504525 -119.772378 320 4424ft 0kts
03-May-19 13:12 39.504525 -119.772378 320 4424ft 0kts
03-May-19 13:13 39.504525 -119.772378 320 4424ft 0kts
03-May-19 13:14 39.504525 -119.772378 320 4424ft 0kts
03-May-19 13:15 39.504525 -119.772378 320 4424ft 0kts
03-May-19 13:16 39.504525 -119.772378 320 4424ft 0kts
03-May-19 13:17 39.504525 -119.772378 320 4424ft 0kts
03-May-19 13:18 39.504525 -119.772378 320 4424ft 0kts
03-May-19 13:19 39.504525 -119.772378 320 4424ft 0kts
03-May-19 13:20 39.504525 -119.772378 320 4424ft 0kts
03-May-19 13:21 39.504525 -119.772378 320 4424ft 0kts
03-May-19 13:22 39.504525 -119.772378 320 4424ft 0kts
03-May-19 13:23 39.504525 -119.772378 320 4424ft 0kts
03-May-19 13:24 39.504525 -119.772378 320 4424ft 0kts
03-May-19 13:25 39.504525 -119.772378 320 4424ft 0kts
03-May-19 13:26 39.504525 -119.772378 320 4424ft 0kts
03-May-19 13:27 39.504525 -119.772378 320 4424ft 0kts
03-May-19 13:28 39.504525 -119.772378 320 4424ft 0kts
03-May-19 13:29 39.504525 -119.772378 320 4424ft 0kts
03-May-19 13:30 39.504525 -119.772378 320 4424ft 0kts
03-May-19 13:31 39.504525 -119.772378 320 4424ft 0kts
03-May-19 13:32 39.504525 -119.772379 320 4424ft 0kts
03-May-19 13:33 39.504238 -119.772216 353 4424ft 2kts
03-May-19 13:34 39.503749 -119.772549 72 4424ft 2kts
03-May-19 13:35 39.503728 -119.772182 88 4424ft 0kts
03-May-19 13:36 39.503728 -119.772182 88 4424ft 0kts
03-May-19 13:37 39.503728 -119.772182 88 4424ft 0kts
03-May-19 13:38 39.503728 -119.772182 88 4424ft 0kts
03-May-19 13:39 39.503728 -119.772182 88 4424ft 0kts
03-May-19 13:40 39.505352 -119.771513 359 4424ft 13kts
03-May-19 13:41 39.509398 -119.771481 359 4424ft 16kts
03-May-19 13:42 39.513727 -119.770748 88 4424ft 12kts
03-May-19 13:43 39.513729 -119.770620 89 4424ft 0kts
03-May-19 13:44 39.508438 -119.769205 180 4424ft 89kts
03-May-19 13:45 39.465097 -119.767239 172 5784ft 171kts
03-May-19 13:46 39.414678 -119.763939 185 7533ft 190kts
03-May-19 13:47 39.355662 -119.774929 187 8663ft 260kts
03-May-19 13:48 39.280658 -119.761246 173 10957ft 290kts
03-May-19 13:49 39.202060 -119.741368 148 13597ft 300kts
03-May-19 13:50 39.139294 -119.667182 127 15684ft 321kts
03-May-19 13:51 39.083754 -119.572272 126 17011ft 358kts
03-May-19 13:52 39.023624 -119.469157 126 19088ft 364kts
03-May-19 13:53 38.962253 -119.364145 126 20814ft 374kts
03-May-19 13:54 38.898498 -119.256473 127 22385ft 383kts
03-May-19 13:55 38.833124 -119.147174 127 23798ft 391kts
03-May-19 13:56 38.766862 -119.035307 127 25078ft 398kts
03-May-19 13:57 38.699230 -118.921205 127 26191ft 406kts
03-May-19 13:58 38.630405 -118.805462 127 27204ft 413kts
03-May-19 13:59 38.560254 -118.687905 127 28140ft 419kts
03-May-19 14:00 38.489397 -118.569593 127 28986ft 424kts
03-May-19 14:01 38.415861 -118.447251 127 29093ft 442kts
03-May-19 14:02 38.342321 -118.325390 127 29091ft 442kts
03-May-19 14:03 38.267394 -118.201855 127 29089ft 440kts
03-May-19 14:04 38.192552 -118.078685 129 29093ft 443kts
03-May-19 14:05 38.117034 -117.955100 129 29082ft 446kts
03-May-19 14:06 38.041086 -117.831111 129 29063ft 446kts
03-May-19 14:07 37.964921 -117.707541 127 29066ft 445kts
03-May-19 14:08 37.889781 -117.585622 128 29064ft 445kts
03-May-19 14:09 37.813018 -117.463146 127 29064ft 445kts
03-May-19 14:10 37.736529 -117.340299 128 29064ft 445kts
03-May-19 14:11 37.636526 -117.259551 171 29081ft 443kts
03-May-19 14:12 37.515152 -117.235915 171 29064ft 444kts
03-May-19 14:13 37.392038 -117.220429 173 29063ft 445kts
03-May-19 14:14 37.278771 -117.162638 148 29065ft 445kts
03-May-19 14:15 37.175908 -117.076775 145 29063ft 446kts
03-May-19 14:16 37.074253 -116.987501 144 29059ft 447kts
03-May-19 14:17 36.972950 -116.898268 144 29056ft 447kts
03-May-19 14:18 36.870998 -116.809053 145 29055ft 447kts
03-May-19 14:19 36.769803 -116.726508 120 29061ft 444kts
03-May-19 14:20 36.699457 -116.601801 131 29055ft 444kts
03-May-19 14:21 36.618037 -116.486473 130 29055ft 445kts
03-May-19 14:22 36.536751 -116.370785 130 29055ft 445kts
03-May-19 14:23 36.455963 -116.256185 131 29055ft 446kts
03-May-19 14:24 36.374125 -116.140441 131 29054ft 447kts
03-May-19 14:25 36.292258 -116.025064 130 29049ft 449kts
03-May-19 14:26 36.209618 -115.908732 134 29059ft 451kts
03-May-19 14:27 36.107603 -115.819810 151 29058ft 453kts
03-May-19 14:28 35.996812 -115.745604 154 29082ft 455kts
03-May-19 14:29 35.885987 -115.672204 151 29051ft 451kts
03-May-19 14:30 35.776172 -115.599859 151 29054ft 448kts
03-May-19 14:31 35.667135 -115.527751 151 29054ft 445kts
03-May-19 14:33 35.558391 -115.456012 151 29054ft 443kts
03-May-19 14:34 35.450480 -115.385048 151 29054ft 441kts
03-May-19 14:35 35.342792 -115.314377 152 29053ft 439kts
03-May-19 14:36 35.235208 -115.243923 152 28996ft 439kts
03-May-19 14:37 35.120619 -115.203769 176 28962ft 437kts
03-May-19 14:38 35.004028 -115.228448 204 28966ft 435kts
03-May-19 14:39 34.892114 -115.282918 199 28963ft 434kts
03-May-19 14:40 34.779002 -115.332275 200 28963ft 434kts
03-May-19 14:41 34.665841 -115.382065 200 28982ft 433kts
03-May-19 14:42 34.553150 -115.431582 200 29059ft 431kts
03-May-19 14:43 34.440741 -115.480844 200 29073ft 431kts
03-May-19 14:44 34.328276 -115.530801 207 28481ft 434kts
03-May-19 14:45 34.236369 -115.622626 222 27384ft 427kts
03-May-19 14:46 34.154883 -115.721012 225 26176ft 426kts
03-May-19 14:47 34.060370 -115.808354 209 24693ft 435kts
03-May-19 14:48 33.962075 -115.891108 215 23952ft 422kts
03-May-19 14:49 33.872840 -115.964223 214 23505ft 374kts
03-May-19 14:50 33.786874 -116.033583 213 21194ft 371kts
03-May-19 14:51 33.707127 -116.097904 213 19146ft 330kts
03-May-19 14:51 33.643854 -116.147871 203 16574ft 326kts
03-May-19 14:53 33.555559 -116.100383 133 14391ft 322kts
03-May-19 14:54 33.495558 -116.026303 133 13220ft 311kts
03-May-19 14:54 33.446159 -115.964392 133 12088ft 307kts
03-May-19 14:56 33.457732 -115.867492 20 10999ft 289kts
03-May-19 14:57 33.529944 -115.894813 319 10989ft 293kts
03-May-19 14:57 33.569187 -115.964782 301 10553ft 307kts
03-May-19 14:58 33.613906 -116.050925 301 9905ft 305kts
03-May-19 15:00 33.666278 -116.150781 301 8716ft 300kts
03-May-19 15:00 33.702829 -116.221277 301 7882ft 297kts
03-May-19 15:01 33.744636 -116.305129 301 6802ft 288kts
03-May-19 15:03 33.793551 -116.395343 304 5000ft 266kts
03-May-19 15:03 33.836350 -116.445158 326 3803ft 243kts
03-May-19 15:04 33.886553 -116.482177 330 3156ft 167kts
03-May-19 15:05 33.907356 -116.517882 241 2330ft 147kts
03-May-19 15:06 33.877529 -116.548854 161 1598ft 159kts
03-May-19 15:07 33.843280 -116.519771 145 775ft 147kts
03-May-19 15:08 33.822044 -116.500929 254 486ft 1kts
03-May-19 15:09 33.823530 -116.505088 307 486ft 4kts
03-May-19 15:10 33.823464 -116.505860 252 486ft 0kts

Navigation Log

Ident Type
Flight plan parsing failed, navigation log unavailable